sensor_id;sensor_type;location;lat;lon;timestamp;temperature;humidity
61092;DHT22;46975;51.898;11.444;2022-07-23T00:00:50;17.90;99.90
61092;DHT22;46975;51.898;11.444;2022-07-23T00:03:16;18.00;99.90
61092;DHT22;46975;51.898;11.444;2022-07-23T00:05:41;18.00;99.90
61092;DHT22;46975;51.898;11.444;2022-07-23T00:08:07;18.00;99.90
61092;DHT22;46975;51.898;11.444;2022-07-23T00:10:33;18.00;99.90
61092;DHT22;46975;51.898;11.444;2022-07-23T00:12:59;17.90;99.90
61092;DHT22;46975;51.898;11.444;2022-07-23T00:15:25;17.90;99.90
61092;DHT22;46975;51.898;11.444;2022-07-23T00:17:50;17.90;99.90
61092;DHT22;46975;51.898;11.444;2022-07-23T00:20:16;17.90;99.90
61092;DHT22;46975;51.898;11.444;2022-07-23T00:22:53;18.00;99.90
61092;DHT22;46975;51.898;11.444;2022-07-23T00:25:20;18.10;99.90
61092;DHT22;46975;51.898;11.444;2022-07-23T00:27:46;18.10;99.90
61092;DHT22;46975;51.898;11.444;2022-07-23T00:30:13;18.10;99.90
61092;DHT22;46975;51.898;11.444;2022-07-23T00:32:50;18.00;99.90
61092;DHT22;46975;51.898;11.444;2022-07-23T00:35:19;18.10;99.90
61092;DHT22;46975;51.898;11.444;2022-07-23T00:37:46;18.00;99.90
61092;DHT22;46975;51.898;11.444;2022-07-23T00:40:11;18.00;99.90
61092;DHT22;46975;51.898;11.444;2022-07-23T00:42:38;18.00;99.90
61092;DHT22;46975;51.898;11.444;2022-07-23T00:45:04;17.90;99.90
61092;DHT22;46975;51.898;11.444;2022-07-23T00:47:30;17.90;99.90
61092;DHT22;46975;51.898;11.444;2022-07-23T00:49:56;17.90;99.90
61092;DHT22;46975;51.898;11.444;2022-07-23T00:52:22;18.00;99.90
61092;DHT22;46975;51.898;11.444;2022-07-23T00:54:48;18.00;99.90
61092;DHT22;46975;51.898;11.444;2022-07-23T00:57:14;17.90;99.90
61092;DHT22;46975;51.898;11.444;2022-07-23T00:59:40;17.90;99.90
61092;DHT22;46975;51.898;11.444;2022-07-23T01:02:06;17.90;99.90
61092;DHT22;46975;51.898;11.444;2022-07-23T01:04:31;18.00;99.90
61092;DHT22;46975;51.898;11.444;2022-07-23T01:06:58;18.10;99.90
61092;DHT22;46975;51.898;11.444;2022-07-23T01:09:24;18.20;99.90
61092;DHT22;46975;51.898;11.444;2022-07-23T01:11:51;18.10;99.90
61092;DHT22;46975;51.898;11.444;2022-07-23T01:14:18;18.00;99.90
61092;DHT22;46975;51.898;11.444;2022-07-23T01:16:46;18.00;99.90
61092;DHT22;46975;51.898;11.444;2022-07-23T01:19:13;17.90;99.90
61092;DHT22;46975;51.898;11.444;2022-07-23T01:21:42;17.90;99.90
61092;DHT22;46975;51.898;11.444;2022-07-23T01:24:08;17.90;99.90
61092;DHT22;46975;51.898;11.444;2022-07-23T01:26:34;17.90;99.90
61092;DHT22;46975;51.898;11.444;2022-07-23T01:29:00;18.00;99.90
61092;DHT22;46975;51.898;11.444;2022-07-23T01:31:26;18.00;99.90
61092;DHT22;46975;51.898;11.444;2022-07-23T01:33:52;18.00;99.90
61092;DHT22;46975;51.898;11.444;2022-07-23T01:36:17;18.10;99.90
61092;DHT22;46975;51.898;11.444;2022-07-23T01:38:43;18.10;99.90
61092;DHT22;46975;51.898;11.444;2022-07-23T01:41:09;18.00;99.90
61092;DHT22;46975;51.898;11.444;2022-07-23T01:43:34;17.90;99.90
61092;DHT22;46975;51.898;11.444;2022-07-23T01:46:00;17.80;99.90
61092;DHT22;46975;51.898;11.444;2022-07-23T01:48:25;17.50;99.90
61092;DHT22;46975;51.898;11.444;2022-07-23T01:50:51;17.30;99.90
61092;DHT22;46975;51.898;11.444;2022-07-23T01:53:17;17.20;99.90
61092;DHT22;46975;51.898;11.444;2022-07-23T01:55:43;17.20;99.90
61092;DHT22;46975;51.898;11.444;2022-07-23T01:58:09;17.00;99.90
61092;DHT22;46975;51.898;11.444;2022-07-23T02:00:35;16.90;99.90
61092;DHT22;46975;51.898;11.444;2022-07-23T02:03:00;16.80;99.90
61092;DHT22;46975;51.898;11.444;2022-07-23T02:05:26;16.70;99.90
61092;DHT22;46975;51.898;11.444;2022-07-23T02:07:54;16.70;99.90
61092;DHT22;46975;51.898;11.444;2022-07-23T02:10:20;16.80;99.90
61092;DHT22;46975;51.898;11.444;2022-07-23T02:12:46;16.80;99.90
61092;DHT22;46975;51.898;11.444;2022-07-23T02:15:11;16.80;99.90
61092;DHT22;46975;51.898;11.444;2022-07-23T02:17:37;16.90;99.90
61092;DHT22;46975;51.898;11.444;2022-07-23T02:20:04;16.80;99.90
61092;DHT22;46975;51.898;11.444;2022-07-23T02:22:30;16.80;99.90
61092;DHT22;46975;51.898;11.444;2022-07-23T02:24:55;16.90;99.90
61092;DHT22;46975;51.898;11.444;2022-07-23T02:27:21;16.80;99.90
61092;DHT22;46975;51.898;11.444;2022-07-23T02:29:47;16.80;99.90
61092;DHT22;46975;51.898;11.444;2022-07-23T02:32:12;16.80;99.90
61092;DHT22;46975;51.898;11.444;2022-07-23T02:34:38;16.80;99.90
61092;DHT22;46975;51.898;11.444;2022-07-23T02:37:04;16.80;99.90
61092;DHT22;46975;51.898;11.444;2022-07-23T02:39:29;16.70;99.90
61092;DHT22;46975;51.898;11.444;2022-07-23T02:41:55;16.80;99.90
61092;DHT22;46975;51.898;11.444;2022-07-23T02:44:21;16.70;99.90
61092;DHT22;46975;51.898;11.444;2022-07-23T02:46:46;16.70;99.90
61092;DHT22;46975;51.898;11.444;2022-07-23T02:49:12;16.70;99.90
61092;DHT22;46975;51.898;11.444;2022-07-23T02:51:37;16.80;99.90
61092;DHT22;46975;51.898;11.444;2022-07-23T02:54:03;16.80;99.90
61092;DHT22;46975;51.898;11.444;2022-07-23T02:56:28;16.90;99.90
61092;DHT22;46975;51.898;11.444;2022-07-23T02:58:54;16.80;99.90
61092;DHT22;46975;51.898;11.444;2022-07-23T03:01:20;16.70;99.90
61092;DHT22;46975;51.898;11.444;2022-07-23T03:03:45;16.70;99.90
61092;DHT22;46975;51.898;11.444;2022-07-23T03:06:11;16.70;99.90
61092;DHT22;46975;51.898;11.444;2022-07-23T03:08:37;16.70;99.90
61092;DHT22;46975;51.898;11.444;2022-07-23T03:11:03;16.70;99.90
61092;DHT22;46975;51.898;11.444;2022-07-23T03:13:28;16.80;99.90
61092;DHT22;46975;51.898;11.444;2022-07-23T03:15:54;16.80;99.90
61092;DHT22;46975;51.898;11.444;2022-07-23T03:18:20;16.80;99.90
61092;DHT22;46975;51.898;11.444;2022-07-23T03:20:46;16.70;99.90
61092;DHT22;46975;51.898;11.444;2022-07-23T03:23:11;16.70;99.90
61092;DHT22;46975;51.898;11.444;2022-07-23T03:25:37;16.70;99.90
61092;DHT22;46975;51.898;11.444;2022-07-23T03:28:03;16.70;99.90
61092;DHT22;46975;51.898;11.444;2022-07-23T03:30:28;16.70;99.90
61092;DHT22;46975;51.898;11.444;2022-07-23T03:32:54;16.60;99.90
61092;DHT22;46975;51.898;11.444;2022-07-23T03:35:20;16.60;99.90
61092;DHT22;46975;51.898;11.444;2022-07-23T03:37:45;16.70;99.90
61092;DHT22;46975;51.898;11.444;2022-07-23T03:40:11;16.70;99.90
61092;DHT22;46975;51.898;11.444;2022-07-23T03:42:37;16.70;99.90
61092;DHT22;46975;51.898;11.444;2022-07-23T03:45:05;16.70;99.90
61092;DHT22;46975;51.898;11.444;2022-07-23T03:47:31;16.70;99.90
61092;DHT22;46975;51.898;11.444;2022-07-23T03:49:56;16.60;99.90
61092;DHT22;46975;51.898;11.444;2022-07-23T03:52:22;16.60;99.90
61092;DHT22;46975;51.898;11.444;2022-07-23T03:54:47;16.70;99.90
61092;DHT22;46975;51.898;11.444;2022-07-23T03:57:13;16.60;99.90
61092;DHT22;46975;51.898;11.444;2022-07-23T03:59:39;16.50;99.90
61092;DHT22;46975;51.898;11.444;2022-07-23T04:02:04;16.50;99.90
61092;DHT22;46975;51.898;11.444;2022-07-23T04:04:30;16.60;99.90
61092;DHT22;46975;51.898;11.444;2022-07-23T04:06:55;16.60;99.90
61092;DHT22;46975;51.898;11.444;2022-07-23T04:09:21;16.60;99.90
61092;DHT22;46975;51.898;11.444;2022-07-23T04:11:46;16.60;99.90
61092;DHT22;46975;51.898;11.444;2022-07-23T04:14:12;16.60;99.90
61092;DHT22;46975;51.898;11.444;2022-07-23T04:16:38;16.60;99.90
61092;DHT22;46975;51.898;11.444;2022-07-23T04:19:04;16.60;99.90
61092;DHT22;46975;51.898;11.444;2022-07-23T04:21:29;16.60;99.90
61092;DHT22;46975;51.898;11.444;2022-07-23T04:23:55;16.60;99.90
61092;DHT22;46975;51.898;11.444;2022-07-23T04:26:21;16.70;99.90
61092;DHT22;46975;51.898;11.444;2022-07-23T04:28:47;16.80;99.90
61092;DHT22;46975;51.898;11.444;2022-07-23T04:31:12;16.80;99.90
61092;DHT22;46975;51.898;11.444;2022-07-23T04:33:38;16.80;99.90
61092;DHT22;46975;51.898;11.444;2022-07-23T04:36:04;17.00;99.90
61092;DHT22;46975;51.898;11.444;2022-07-23T04:38:29;17.00;99.90
61092;DHT22;46975;51.898;11.444;2022-07-23T04:40:55;17.10;99.90
61092;DHT22;46975;51.898;11.444;2022-07-23T04:43:21;16.90;99.90
61092;DHT22;46975;51.898;11.444;2022-07-23T04:45:46;16.80;99.90
61092;DHT22;46975;51.898;11.444;2022-07-23T04:48:12;16.80;99.90
61092;DHT22;46975;51.898;11.444;2022-07-23T04:50:37;16.90;99.90
61092;DHT22;46975;51.898;11.444;2022-07-23T04:53:04;16.80;99.90
61092;DHT22;46975;51.898;11.444;2022-07-23T04:55:29;16.80;99.90
61092;DHT22;46975;51.898;11.444;2022-07-23T04:57:55;16.70;99.90
61092;DHT22;46975;51.898;11.444;2022-07-23T05:00:21;16.80;99.90
61092;DHT22;46975;51.898;11.444;2022-07-23T05:02:46;16.80;99.90
61092;DHT22;46975;51.898;11.444;2022-07-23T05:05:12;16.80;99.90
61092;DHT22;46975;51.898;11.444;2022-07-23T05:07:39;16.80;99.90
61092;DHT22;46975;51.898;11.444;2022-07-23T05:10:05;16.90;99.90
61092;DHT22;46975;51.898;11.444;2022-07-23T05:12:30;16.80;99.90
61092;DHT22;46975;51.898;11.444;2022-07-23T05:14:56;16.80;99.90
61092;DHT22;46975;51.898;11.444;2022-07-23T05:17:21;16.80;99.90
61092;DHT22;46975;51.898;11.444;2022-07-23T05:19:47;16.90;99.90
61092;DHT22;46975;51.898;11.444;2022-07-23T05:22:13;16.90;99.90
61092;DHT22;46975;51.898;11.444;2022-07-23T05:24:38;16.90;99.90
61092;DHT22;46975;51.898;11.444;2022-07-23T05:27:04;16.90;99.90
61092;DHT22;46975;51.898;11.444;2022-07-23T05:29:29;16.90;99.90
61092;DHT22;46975;51.898;11.444;2022-07-23T05:31:55;16.90;99.90
61092;DHT22;46975;51.898;11.444;2022-07-23T05:34:20;16.80;99.90
61092;DHT22;46975;51.898;11.444;2022-07-23T05:36:46;16.90;99.90
61092;DHT22;46975;51.898;11.444;2022-07-23T05:39:12;17.00;99.90
61092;DHT22;46975;51.898;11.444;2022-07-23T05:41:37;17.10;99.90
61092;DHT22;46975;51.898;11.444;2022-07-23T05:44:03;17.10;99.90
61092;DHT22;46975;51.898;11.444;2022-07-23T05:46:28;17.20;99.90
61092;DHT22;46975;51.898;11.444;2022-07-23T05:48:54;17.30;99.90
61092;DHT22;46975;51.898;11.444;2022-07-23T05:51:24;17.40;99.90
61092;DHT22;46975;51.898;11.444;2022-07-23T05:53:50;17.70;99.90
61092;DHT22;46975;51.898;11.444;2022-07-23T05:56:16;17.60;99.90
61092;DHT22;46975;51.898;11.444;2022-07-23T05:58:42;17.70;99.90
61092;DHT22;46975;51.898;11.444;2022-07-23T06:01:08;17.60;99.90
61092;DHT22;46975;51.898;11.444;2022-07-23T06:03:34;17.60;99.90
61092;DHT22;46975;51.898;11.444;2022-07-23T06:06:00;17.60;99.90
61092;DHT22;46975;51.898;11.444;2022-07-23T06:08:25;17.70;99.90
61092;DHT22;46975;51.898;11.444;2022-07-23T06:10:51;17.70;99.90
61092;DHT22;46975;51.898;11.444;2022-07-23T06:13:19;17.70;99.90
61092;DHT22;46975;51.898;11.444;2022-07-23T06:15:45;17.80;99.90
61092;DHT22;46975;51.898;11.444;2022-07-23T06:18:11;17.70;99.90
61092;DHT22;46975;51.898;11.444;2022-07-23T06:20:37;17.50;99.90
61092;DHT22;46975;51.898;11.444;2022-07-23T06:23:02;17.50;99.90
61092;DHT22;46975;51.898;11.444;2022-07-23T06:25:28;17.50;99.90
61092;DHT22;46975;51.898;11.444;2022-07-23T06:27:54;17.50;99.90
61092;DHT22;46975;51.898;11.444;2022-07-23T06:30:20;17.70;99.90
61092;DHT22;46975;51.898;11.444;2022-07-23T06:32:46;17.90;99.90
61092;DHT22;46975;51.898;11.444;2022-07-23T06:35:12;18.00;99.90
61092;DHT22;46975;51.898;11.444;2022-07-23T06:37:38;18.10;99.90
61092;DHT22;46975;51.898;11.444;2022-07-23T06:40:04;18.10;99.90
61092;DHT22;46975;51.898;11.444;2022-07-23T06:42:30;18.20;99.90
61092;DHT22;46975;51.898;11.444;2022-07-23T06:44:55;18.30;99.90
61092;DHT22;46975;51.898;11.444;2022-07-23T06:47:21;18.50;99.90
61092;DHT22;46975;51.898;11.444;2022-07-23T06:49:47;18.70;99.90
61092;DHT22;46975;51.898;11.444;2022-07-23T06:52:12;18.60;99.90
61092;DHT22;46975;51.898;11.444;2022-07-23T06:54:38;18.60;99.90
61092;DHT22;46975;51.898;11.444;2022-07-23T06:57:03;18.40;99.90
61092;DHT22;46975;51.898;11.444;2022-07-23T06:59:29;18.30;99.90
61092;DHT22;46975;51.898;11.444;2022-07-23T07:01:55;18.10;99.90
61092;DHT22;46975;51.898;11.444;2022-07-23T07:04:20;18.10;99.90
61092;DHT22;46975;51.898;11.444;2022-07-23T07:06:46;18.40;99.90
61092;DHT22;46975;51.898;11.444;2022-07-23T07:09:11;18.80;99.90
61092;DHT22;46975;51.898;11.444;2022-07-23T07:11:37;19.00;99.90
61092;DHT22;46975;51.898;11.444;2022-07-23T07:14:03;19.00;99.90
61092;DHT22;46975;51.898;11.444;2022-07-23T07:16:30;19.00;99.90
61092;DHT22;46975;51.898;11.444;2022-07-23T07:18:55;18.90;99.90
61092;DHT22;46975;51.898;11.444;2022-07-23T07:21:21;19.00;99.90
61092;DHT22;46975;51.898;11.444;2022-07-23T07:23:46;19.20;99.90
61092;DHT22;46975;51.898;11.444;2022-07-23T07:26:12;19.20;99.90
61092;DHT22;46975;51.898;11.444;2022-07-23T07:28:38;19.20;99.90
61092;DHT22;46975;51.898;11.444;2022-07-23T07:31:03;19.20;99.90
61092;DHT22;46975;51.898;11.444;2022-07-23T07:33:29;19.00;99.90
61092;DHT22;46975;51.898;11.444;2022-07-23T07:35:55;18.90;99.90
61092;DHT22;46975;51.898;11.444;2022-07-23T07:38:20;18.90;99.90
61092;DHT22;46975;51.898;11.444;2022-07-23T07:40:46;18.90;99.90
61092;DHT22;46975;51.898;11.444;2022-07-23T07:43:12;18.80;99.90
61092;DHT22;46975;51.898;11.444;2022-07-23T07:45:37;18.80;99.90
61092;DHT22;46975;51.898;11.444;2022-07-23T07:48:03;18.90;99.90
61092;DHT22;46975;51.898;11.444;2022-07-23T07:50:29;19.00;99.90
61092;DHT22;46975;51.898;11.444;2022-07-23T07:52:55;19.20;99.90
61092;DHT22;46975;51.898;11.444;2022-07-23T07:55:20;19.40;99.90
61092;DHT22;46975;51.898;11.444;2022-07-23T07:57:46;19.60;99.90
61092;DHT22;46975;51.898;11.444;2022-07-23T08:00:12;19.80;99.90
61092;DHT22;46975;51.898;11.444;2022-07-23T08:02:47;19.80;99.90
61092;DHT22;46975;51.898;11.444;2022-07-23T08:05:13;19.80;99.90
61092;DHT22;46975;51.898;11.444;2022-07-23T08:07:40;19.90;99.90
61092;DHT22;46975;51.898;11.444;2022-07-23T08:10:07;20.10;99.90
61092;DHT22;46975;51.898;11.444;2022-07-23T08:12:41;19.90;99.90
61092;DHT22;46975;51.898;11.444;2022-07-23T08:15:07;19.90;99.90
61092;DHT22;46975;51.898;11.444;2022-07-23T08:17:33;20.30;99.90
61092;DHT22;46975;51.898;11.444;2022-07-23T08:19:59;20.50;99.90
61092;DHT22;46975;51.898;11.444;2022-07-23T08:22:24;20.50;99.90
61092;DHT22;46975;51.898;11.444;2022-07-23T08:24:50;20.50;99.90
61092;DHT22;46975;51.898;11.444;2022-07-23T08:27:16;20.50;99.90
61092;DHT22;46975;51.898;11.444;2022-07-23T08:29:41;20.40;99.90
61092;DHT22;46975;51.898;11.444;2022-07-23T08:32:07;20.50;99.90
61092;DHT22;46975;51.898;11.444;2022-07-23T08:34:32;20.50;99.90
61092;DHT22;46975;51.898;11.444;2022-07-23T08:36:58;21.10;99.90
61092;DHT22;46975;51.898;11.444;2022-07-23T08:39:24;21.70;99.90
61092;DHT22;46975;51.898;11.444;2022-07-23T08:41:50;22.10;99.90
61092;DHT22;46975;51.898;11.444;2022-07-23T08:44:16;22.90;99.90
61092;DHT22;46975;51.898;11.444;2022-07-23T08:46:43;23.40;99.90
61092;DHT22;46975;51.898;11.444;2022-07-23T08:49:10;23.20;99.90
61092;DHT22;46975;51.898;11.444;2022-07-23T08:51:35;22.50;99.90
61092;DHT22;46975;51.898;11.444;2022-07-23T08:54:01;22.00;99.90
61092;DHT22;46975;51.898;11.444;2022-07-23T08:56:27;22.20;99.90
61092;DHT22;46975;51.898;11.444;2022-07-23T08:58:55;23.10;99.90
61092;DHT22;46975;51.898;11.444;2022-07-23T09:01:21;22.80;99.90
61092;DHT22;46975;51.898;11.444;2022-07-23T09:03:47;22.50;99.90
61092;DHT22;46975;51.898;11.444;2022-07-23T09:06:12;21.90;99.90
61092;DHT22;46975;51.898;11.444;2022-07-23T09:08:39;22.20;99.90
61092;DHT22;46975;51.898;11.444;2022-07-23T09:11:10;23.20;99.90
61092;DHT22;46975;51.898;11.444;2022-07-23T09:13:41;23.70;99.90
61092;DHT22;46975;51.898;11.444;2022-07-23T09:16:31;23.20;99.90
61092;DHT22;46975;51.898;11.444;2022-07-23T09:19:02;22.70;99.90
61092;DHT22;46975;51.898;11.444;2022-07-23T09:21:35;22.90;99.90
61092;DHT22;46975;51.898;11.444;2022-07-23T09:24:08;22.90;99.90
61092;DHT22;46975;51.898;11.444;2022-07-23T09:26:38;23.20;99.90
61092;DHT22;46975;51.898;11.444;2022-07-23T09:29:14;23.90;99.90
61092;DHT22;46975;51.898;11.444;2022-07-23T09:31:58;24.20;99.90
61092;DHT22;46975;51.898;11.444;2022-07-23T09:34:26;23.70;99.90
61092;DHT22;46975;51.898;11.444;2022-07-23T09:36:55;23.40;99.90
61092;DHT22;46975;51.898;11.444;2022-07-23T09:39:32;23.90;99.90
61092;DHT22;46975;51.898;11.444;2022-07-23T09:44:47;24.20;99.90
61092;DHT22;46975;51.898;11.444;2022-07-23T09:47:13;24.70;99.90
61092;DHT22;46975;51.898;11.444;2022-07-23T09:49:39;25.30;99.90
61092;DHT22;46975;51.898;11.444;2022-07-23T09:52:05;25.70;99.90
61092;DHT22;46975;51.898;11.444;2022-07-23T09:54:37;25.70;99.90
61092;DHT22;46975;51.898;11.444;2022-07-23T09:59:36;26.00;99.90
61092;DHT22;46975;51.898;11.444;2022-07-23T10:02:02;25.30;99.90
61092;DHT22;46975;51.898;11.444;2022-07-23T10:04:30;25.30;99.90
61092;DHT22;46975;51.898;11.444;2022-07-23T10:06:58;25.60;99.90
61092;DHT22;46975;51.898;11.444;2022-07-23T10:09:30;26.30;99.90
61092;DHT22;46975;51.898;11.444;2022-07-23T10:11:58;27.00;99.90
61092;DHT22;46975;51.898;11.444;2022-07-23T10:14:40;27.10;99.90
61092;DHT22;46975;51.898;11.444;2022-07-23T10:17:07;28.10;99.90
61092;DHT22;46975;51.898;11.444;2022-07-23T10:19:33;27.80;99.90
61092;DHT22;46975;51.898;11.444;2022-07-23T10:22:04;26.90;99.90
61092;DHT22;46975;51.898;11.444;2022-07-23T10:30:01;24.80;99.90
61092;DHT22;46975;51.898;11.444;2022-07-23T10:35:36;25.90;99.90
61092;DHT22;46975;51.898;11.444;2022-07-23T10:43:23;26.60;99.90
61092;DHT22;46975;51.898;11.444;2022-07-23T10:45:50;27.70;99.90
61092;DHT22;46975;51.898;11.444;2022-07-23T10:48:24;28.50;99.90
61092;DHT22;46975;51.898;11.444;2022-07-23T10:51:11;28.10;99.90
61092;DHT22;46975;51.898;11.444;2022-07-23T10:53:58;27.10;99.90
61092;DHT22;46975;51.898;11.444;2022-07-23T10:59:22;26.10;99.90
61092;DHT22;46975;51.898;11.444;2022-07-23T11:01:48;26.80;99.90
61092;DHT22;46975;51.898;11.444;2022-07-23T11:04:14;27.10;99.90
61092;DHT22;46975;51.898;11.444;2022-07-23T11:09:31;27.10;99.90
61092;DHT22;46975;51.898;11.444;2022-07-23T11:17:28;26.10;99.90
61092;DHT22;46975;51.898;11.444;2022-07-23T11:22:36;26.40;99.90
61092;DHT22;46975;51.898;11.444;2022-07-23T11:25:03;25.90;99.90
61092;DHT22;46975;51.898;11.444;2022-07-23T11:27:45;25.70;99.90
61092;DHT22;46975;51.898;11.444;2022-07-23T11:35:36;26.10;99.90
61092;DHT22;46975;51.898;11.444;2022-07-23T11:38:28;26.30;99.90
61092;DHT22;46975;51.898;11.444;2022-07-23T11:40:54;27.00;99.90
61092;DHT22;46975;51.898;11.444;2022-07-23T11:43:22;27.40;99.90
61092;DHT22;46975;51.898;11.444;2022-07-23T11:45:50;27.60;99.90
61092;DHT22;46975;51.898;11.444;2022-07-23T11:48:19;27.20;99.70
61092;DHT22;46975;51.898;11.444;2022-07-23T11:50:45;26.70;99.90
61092;DHT22;46975;51.898;11.444;2022-07-23T11:53:11;26.10;99.90
61092;DHT22;46975;51.898;11.444;2022-07-23T11:55:37;25.50;99.90
61092;DHT22;46975;51.898;11.444;2022-07-23T11:58:03;25.30;99.90
61092;DHT22;46975;51.898;11.444;2022-07-23T12:00:31;25.60;99.90
61092;DHT22;46975;51.898;11.444;2022-07-23T12:03:01;25.80;99.90
61092;DHT22;46975;51.898;11.444;2022-07-23T12:05:29;25.90;99.90
61092;DHT22;46975;51.898;11.444;2022-07-23T12:07:56;26.40;99.90
61092;DHT22;46975;51.898;11.444;2022-07-23T12:10:27;27.20;99.60
61092;DHT22;46975;51.898;11.444;2022-07-23T12:12:58;27.80;99.80
61092;DHT22;46975;51.898;11.444;2022-07-23T12:15:27;28.20;99.50
61092;DHT22;46975;51.898;11.444;2022-07-23T12:17:54;28.40;97.00
61092;DHT22;46975;51.898;11.444;2022-07-23T12:20:25;28.00;97.00
61092;DHT22;46975;51.898;11.444;2022-07-23T12:22:55;27.20;98.20
61092;DHT22;46975;51.898;11.444;2022-07-23T12:25:24;27.40;98.50
61092;DHT22;46975;51.898;11.444;2022-07-23T12:28:06;27.90;97.70
61092;DHT22;46975;51.898;11.444;2022-07-23T12:30:54;28.40;98.40
61092;DHT22;46975;51.898;11.444;2022-07-23T12:35:52;27.10;98.70
61092;DHT22;46975;51.898;11.444;2022-07-23T12:38:20;27.50;96.80
61092;DHT22;46975;51.898;11.444;2022-07-23T12:40:53;26.90;96.60
61092;DHT22;46975;51.898;11.444;2022-07-23T12:43:28;27.70;96.20
61092;DHT22;46975;51.898;11.444;2022-07-23T12:46:12;28.20;96.30
61092;DHT22;46975;51.898;11.444;2022-07-23T12:48:50;28.70;94.10
61092;DHT22;46975;51.898;11.444;2022-07-23T12:51:26;28.90;95.30
61092;DHT22;46975;51.898;11.444;2022-07-23T12:53:54;28.80;94.60
61092;DHT22;46975;51.898;11.444;2022-07-23T12:56:21;29.40;94.30
61092;DHT22;46975;51.898;11.444;2022-07-23T13:06:28;30.50;89.50
61092;DHT22;46975;51.898;11.444;2022-07-23T13:08:54;29.20;90.90
61092;DHT22;46975;51.898;11.444;2022-07-23T13:11:20;29.30;86.70
61092;DHT22;46975;51.898;11.444;2022-07-23T13:13:46;29.70;89.90
61092;DHT22;46975;51.898;11.444;2022-07-23T13:16:11;29.80;85.60
61092;DHT22;46975;51.898;11.444;2022-07-23T13:18:37;29.70;87.40
61092;DHT22;46975;51.898;11.444;2022-07-23T13:21:03;30.10;87.40
61092;DHT22;46975;51.898;11.444;2022-07-23T13:23:29;30.50;88.80
61092;DHT22;46975;51.898;11.444;2022-07-23T13:25:54;30.60;85.70
61092;DHT22;46975;51.898;11.444;2022-07-23T13:28:21;30.80;84.20
61092;DHT22;46975;51.898;11.444;2022-07-23T13:30:47;30.90;85.80
61092;DHT22;46975;51.898;11.444;2022-07-23T13:33:16;31.30;84.00
61092;DHT22;46975;51.898;11.444;2022-07-23T13:35:42;31.40;81.00
61092;DHT22;46975;51.898;11.444;2022-07-23T13:38:09;31.30;79.80
61092;DHT22;46975;51.898;11.444;2022-07-23T13:40:37;31.20;78.20
61092;DHT22;46975;51.898;11.444;2022-07-23T13:43:06;30.80;79.50
61092;DHT22;46975;51.898;11.444;2022-07-23T13:45:33;30.10;78.60
61092;DHT22;46975;51.898;11.444;2022-07-23T13:47:59;29.70;83.50
61092;DHT22;46975;51.898;11.444;2022-07-23T13:50:24;29.50;87.20
61092;DHT22;46975;51.898;11.444;2022-07-23T13:52:50;29.90;83.20
61092;DHT22;46975;51.898;11.444;2022-07-23T13:55:15;30.00;83.50
61092;DHT22;46975;51.898;11.444;2022-07-23T13:57:41;29.90;84.30
61092;DHT22;46975;51.898;11.444;2022-07-23T14:00:08;29.50;80.20
61092;DHT22;46975;51.898;11.444;2022-07-23T14:02:36;29.20;81.60
61092;DHT22;46975;51.898;11.444;2022-07-23T14:05:04;29.20;81.20
61092;DHT22;46975;51.898;11.444;2022-07-23T14:07:30;29.30;84.10
61092;DHT22;46975;51.898;11.444;2022-07-23T14:09:55;29.20;81.00
61092;DHT22;46975;51.898;11.444;2022-07-23T14:12:21;29.20;85.60
61092;DHT22;46975;51.898;11.444;2022-07-23T14:14:46;29.50;84.00
61092;DHT22;46975;51.898;11.444;2022-07-23T14:17:12;29.50;80.20
61092;DHT22;46975;51.898;11.444;2022-07-23T14:19:38;29.20;85.50
61092;DHT22;46975;51.898;11.444;2022-07-23T14:22:04;29.40;83.70
61092;DHT22;46975;51.898;11.444;2022-07-23T14:24:29;29.50;82.90
61092;DHT22;46975;51.898;11.444;2022-07-23T14:26:55;29.50;82.20
61092;DHT22;46975;51.898;11.444;2022-07-23T14:29:20;29.20;79.20
61092;DHT22;46975;51.898;11.444;2022-07-23T14:31:46;28.90;82.70
61092;DHT22;46975;51.898;11.444;2022-07-23T14:34:12;28.30;84.10
61092;DHT22;46975;51.898;11.444;2022-07-23T14:36:38;28.50;85.50
61092;DHT22;46975;51.898;11.444;2022-07-23T14:39:04;29.00;84.80
61092;DHT22;46975;51.898;11.444;2022-07-23T14:41:29;29.30;84.30
61092;DHT22;46975;51.898;11.444;2022-07-23T14:43:55;29.50;85.30
61092;DHT22;46975;51.898;11.444;2022-07-23T14:46:21;29.60;84.50
61092;DHT22;46975;51.898;11.444;2022-07-23T14:48:47;29.30;81.30
61092;DHT22;46975;51.898;11.444;2022-07-23T14:51:12;28.70;81.20
61092;DHT22;46975;51.898;11.444;2022-07-23T14:53:38;28.70;86.40
61092;DHT22;46975;51.898;11.444;2022-07-23T14:56:04;28.70;83.00
61092;DHT22;46975;51.898;11.444;2022-07-23T14:58:30;29.00;81.60
61092;DHT22;46975;51.898;11.444;2022-07-23T15:00:56;29.20;81.80
61092;DHT22;46975;51.898;11.444;2022-07-23T15:03:21;29.10;80.60
61092;DHT22;46975;51.898;11.444;2022-07-23T15:05:47;29.00;84.50
61092;DHT22;46975;51.898;11.444;2022-07-23T15:08:13;28.80;84.70
61092;DHT22;46975;51.898;11.444;2022-07-23T15:10:38;28.50;79.50
61092;DHT22;46975;51.898;11.444;2022-07-23T15:13:04;28.40;81.50
61092;DHT22;46975;51.898;11.444;2022-07-23T15:15:30;28.40;86.70
61092;DHT22;46975;51.898;11.444;2022-07-23T15:17:55;28.40;81.80
61092;DHT22;46975;51.898;11.444;2022-07-23T15:20:21;28.00;82.80
61092;DHT22;46975;51.898;11.444;2022-07-23T15:22:47;28.40;85.90
61092;DHT22;46975;51.898;11.444;2022-07-23T15:25:13;28.60;83.60
61092;DHT22;46975;51.898;11.444;2022-07-23T15:27:39;28.30;83.10
61092;DHT22;46975;51.898;11.444;2022-07-23T15:30:05;28.10;83.60
61092;DHT22;46975;51.898;11.444;2022-07-23T15:32:31;27.80;82.00
61092;DHT22;46975;51.898;11.444;2022-07-23T15:34:56;27.70;83.60
61092;DHT22;46975;51.898;11.444;2022-07-23T15:37:22;27.60;84.10
61092;DHT22;46975;51.898;11.444;2022-07-23T15:39:49;27.40;83.60
61092;DHT22;46975;51.898;11.444;2022-07-23T15:42:16;27.70;85.80
61092;DHT22;46975;51.898;11.444;2022-07-23T15:44:42;27.80;84.70
61092;DHT22;46975;51.898;11.444;2022-07-23T15:47:15;27.60;83.50
61092;DHT22;46975;51.898;11.444;2022-07-23T15:49:41;27.50;88.00
61092;DHT22;46975;51.898;11.444;2022-07-23T15:52:07;27.80;86.80
61092;DHT22;46975;51.898;11.444;2022-07-23T15:54:35;27.80;85.40
61092;DHT22;46975;51.898;11.444;2022-07-23T15:57:02;27.60;83.60
61092;DHT22;46975;51.898;11.444;2022-07-23T15:59:28;27.50;84.50
61092;DHT22;46975;51.898;11.444;2022-07-23T16:01:54;27.50;86.50